createdAt,value
2024-05-09T00:00:41.238Z,15.30
2024-05-09T00:03:10.510Z,15.30
2024-05-09T00:05:43.477Z,15.30
2024-05-09T00:08:11.392Z,15.30
2024-05-09T00:10:40.232Z,15.20
2024-05-09T00:13:08.795Z,15.30
2024-05-09T00:15:36.698Z,15.30
2024-05-09T00:18:05.313Z,15.20
2024-05-09T00:20:38.889Z,15.10
2024-05-09T00:23:09.344Z,15.10
2024-05-09T00:25:37.390Z,15.00
2024-05-09T00:28:04.807Z,15.10
2024-05-09T00:30:35.304Z,15.20
2024-05-09T00:33:08.863Z,15.10
2024-05-09T00:35:37.561Z,15.10
2024-05-09T00:38:04.944Z,15.10
2024-05-09T00:40:40.067Z,15.00
2024-05-09T00:43:10.418Z,15.00
2024-05-09T00:45:37.608Z,15.00
2024-05-09T00:48:07.537Z,15.00
2024-05-09T00:50:38.073Z,14.90
2024-05-09T00:53:11.772Z,14.90
2024-05-09T00:55:40.141Z,15.00
2024-05-09T00:58:09.211Z,14.80
2024-05-09T01:00:39.924Z,14.90
2024-05-09T01:03:10.993Z,14.80
2024-05-09T01:05:40.439Z,14.80
2024-05-09T01:08:08.888Z,14.70
2024-05-09T01:10:36.935Z,14.70
2024-05-09T01:13:07.705Z,14.60
2024-05-09T01:15:35.753Z,14.60
2024-05-09T01:18:09.598Z,14.60
2024-05-09T01:20:41.991Z,14.50
2024-05-09T01:23:12.051Z,14.50
2024-05-09T01:25:39.697Z,14.50
2024-05-09T01:28:07.347Z,14.50
2024-05-09T01:30:36.999Z,14.50
2024-05-09T01:33:07.240Z,14.50
2024-05-09T01:35:36.235Z,14.50
2024-05-09T01:38:03.500Z,14.50
2024-05-09T01:40:37.348Z,14.50
2024-05-09T01:43:11.133Z,14.50
2024-05-09T01:45:42.004Z,14.80
2024-05-09T01:48:10.549Z,14.40
2024-05-09T01:50:41.596Z,14.40
2024-05-09T01:53:11.711Z,14.40
2024-05-09T01:55:38.944Z,14.50
2024-05-09T01:58:06.058Z,14.50
2024-05-09T02:00:39.260Z,14.50
2024-05-09T02:03:12.315Z,14.50
2024-05-09T02:05:42.830Z,14.40
2024-05-09T02:08:20.289Z,14.40
2024-05-09T02:10:48.931Z,14.40
2024-05-09T02:13:16.626Z,14.40
2024-05-09T02:15:44.311Z,14.30
2024-05-09T02:18:11.832Z,14.30
2024-05-09T02:20:40.889Z,14.30
2024-05-09T02:23:09.294Z,14.30
2024-05-09T02:25:36.430Z,14.30
2024-05-09T02:28:03.509Z,14.30
2024-05-09T02:30:38.735Z,14.30
2024-05-09T02:33:10.071Z,14.10
2024-05-09T02:35:38.878Z,14.30
2024-05-09T02:38:06.104Z,14.30
2024-05-09T02:40:37.281Z,14.40
2024-05-09T02:43:07.274Z,14.30
2024-05-09T02:45:34.504Z,14.30
2024-05-09T02:48:02.129Z,14.20
2024-05-09T02:50:36.724Z,14.40
2024-05-09T02:53:07.233Z,14.30
2024-05-09T02:55:34.740Z,14.20
2024-05-09T02:58:01.741Z,14.30
2024-05-09T03:00:36.922Z,14.20
2024-05-09T03:03:08.242Z,14.10
2024-05-09T03:05:36.508Z,14.10
2024-05-09T03:08:04.117Z,14.20
2024-05-09T03:10:36.010Z,14.00
2024-05-09T03:13:09.080Z,13.90
2024-05-09T03:15:36.267Z,13.90
2024-05-09T03:18:04.718Z,13.90
2024-05-09T03:20:34.965Z,13.90
2024-05-09T03:23:05.342Z,13.90
2024-05-09T03:25:32.845Z,13.90
2024-05-09T03:27:59.956Z,13.90
2024-05-09T03:30:38.858Z,13.90
2024-05-09T03:33:15.672Z,13.90
2024-05-09T03:35:46.281Z,13.90
2024-05-09T03:38:13.582Z,13.90
2024-05-09T03:40:51.120Z,13.90
2024-05-09T03:43:19.409Z,13.90
2024-05-09T03:45:49.576Z,14.40
2024-05-09T03:48:17.054Z,13.90
2024-05-09T03:50:44.501Z,13.90
2024-05-09T03:53:13.151Z,13.80
2024-05-09T03:55:40.496Z,13.80
2024-05-09T03:58:10.145Z,13.70
2024-05-09T04:00:39.083Z,13.60
2024-05-09T04:03:10.436Z,13.60
2024-05-09T04:05:42.962Z,13.60
2024-05-09T04:08:11.234Z,13.70
2024-05-09T04:10:38.815Z,13.70
2024-05-09T04:13:05.916Z,13.70
2024-05-09T04:15:33.137Z,13.60
2024-05-09T04:18:00.988Z,13.70
2024-05-09T04:20:36.612Z,13.70
2024-05-09T04:23:08.241Z,13.70
2024-05-09T04:25:36.091Z,13.70
2024-05-09T04:28:03.145Z,13.70
2024-05-09T04:30:37.010Z,13.60
2024-05-09T04:33:08.871Z,13.70
2024-05-09T04:35:38.080Z,13.70
2024-05-09T04:38:05.883Z,13.70
2024-05-09T04:40:36.019Z,13.60
2024-05-09T04:43:05.180Z,13.70
2024-05-09T04:45:32.411Z,13.70
2024-05-09T04:47:59.793Z,13.70
2024-05-09T04:50:35.561Z,13.90
2024-05-09T04:53:10.214Z,13.70
2024-05-09T04:55:38.585Z,13.70
2024-05-09T04:58:08.664Z,13.70
2024-05-09T05:00:38.001Z,13.70
2024-05-09T05:03:13.894Z,13.80
2024-05-09T05:05:43.733Z,13.80
2024-05-09T05:08:16.478Z,13.80
2024-05-09T05:10:44.548Z,13.80
2024-05-09T05:13:25.172Z,13.60
2024-05-09T05:15:56.423Z,13.70
2024-05-09T05:18:25.844Z,12.30
2024-05-09T05:20:54.888Z,13.60
2024-05-09T05:23:22.998Z,13.60
2024-05-09T05:25:52.805Z,13.60
2024-05-09T05:28:20.911Z,13.60
2024-05-09T05:30:47.848Z,13.80
2024-05-09T05:33:16.253Z,13.70
2024-05-09T05:35:43.588Z,13.60
2024-05-09T05:38:11.223Z,13.60
2024-05-09T05:40:39.626Z,13.90
2024-05-09T05:43:11.296Z,13.90
2024-05-09T05:45:39.095Z,14.00
2024-05-09T05:48:07.343Z,14.10
2024-05-09T05:50:37.584Z,14.10
2024-05-09T05:53:07.917Z,14.20
2024-05-09T05:55:39.727Z,15.50
2024-05-09T05:58:10.240Z,14.20
2024-05-09T06:00:39.887Z,14.20
2024-05-09T06:03:09.440Z,14.20
2024-05-09T06:05:39.617Z,14.40
2024-05-09T06:08:07.461Z,14.50
2024-05-09T06:10:38.588Z,14.50
2024-05-09T06:13:08.951Z,14.50
2024-05-09T06:15:35.887Z,14.50
2024-05-09T06:18:06.343Z,14.50
2024-05-09T06:20:36.732Z,14.50
2024-05-09T06:23:09.388Z,14.60
2024-05-09T06:25:37.048Z,14.60
2024-05-09T06:28:04.685Z,14.70
2024-05-09T06:30:40.293Z,14.80
2024-05-09T06:33:11.813Z,15.00
2024-05-09T06:35:40.914Z,15.10
2024-05-09T06:38:11.174Z,15.20
2024-05-09T06:40:41.555Z,15.30
2024-05-09T06:43:18.721Z,15.30
2024-05-09T06:45:52.749Z,15.40
2024-05-09T06:48:21.036Z,15.50
2024-05-09T06:50:49.405Z,15.60
2024-05-09T06:53:17.399Z,15.80
2024-05-09T06:55:44.666Z,16.00
2024-05-09T06:58:11.742Z,16.20
2024-05-09T07:00:41.034Z,16.40
2024-05-09T07:03:11.450Z,16.70
2024-05-09T07:05:39.808Z,16.90
2024-05-09T07:08:07.183Z,17.10
2024-05-09T07:10:36.531Z,17.30
2024-05-09T07:13:16.819Z,17.40
2024-05-09T07:15:43.918Z,17.50
2024-05-09T07:18:20.445Z,17.60
2024-05-09T07:20:49.705Z,17.70
2024-05-09T07:23:18.074Z,17.80
2024-05-09T07:25:45.453Z,17.90
2024-05-09T07:28:14.906Z,18.00
2024-05-09T07:30:42.515Z,18.10
2024-05-09T07:33:09.837Z,18.20
2024-05-09T07:35:37.155Z,18.30
2024-05-09T07:38:04.482Z,18.50
2024-05-09T07:40:36.095Z,18.30
2024-05-09T07:43:08.384Z,18.40
2024-05-09T07:53:37.005Z,18.60
2024-05-09T07:55:56.959Z,18.70
2024-05-09T07:58:27.800Z,18.90
2024-05-09T08:00:55.305Z,18.90
2024-05-09T08:03:23.483Z,19.00
2024-05-09T08:05:51.986Z,19.00
2024-05-09T08:08:18.992Z,19.10
2024-05-09T08:10:46.562Z,19.10
2024-05-09T08:13:13.805Z,19.10
2024-05-09T08:15:40.999Z,19.20
2024-05-09T08:18:10.169Z,19.20
2024-05-09T08:20:38.485Z,19.30
2024-05-09T08:23:05.649Z,19.30
2024-05-09T08:25:32.737Z,19.20
2024-05-09T08:27:59.746Z,19.20
2024-05-09T08:30:33.477Z,19.20
2024-05-09T08:33:05.332Z,19.30
2024-05-09T08:35:33.588Z,19.20
2024-05-09T08:38:02.806Z,19.20
2024-05-09T08:40:35.653Z,19.10
2024-05-09T08:43:12.573Z,19.20
2024-05-09T08:45:44.310Z,19.10
2024-05-09T08:48:14.752Z,19.00
2024-05-09T08:50:43.191Z,19.10
2024-05-09T08:53:10.337Z,19.10
2024-05-09T08:55:41.575Z,19.20
2024-05-09T08:58:16.218Z,19.30
2024-05-09T09:00:44.400Z,19.30
2024-05-09T09:03:18.194Z,19.30
2024-05-09T09:06:02.020Z,19.40
2024-05-09T09:08:28.937Z,19.40
2024-05-09T09:11:02.119Z,19.40
2024-05-09T09:13:29.484Z,19.40
2024-05-09T09:16:00.185Z,19.40
2024-05-09T09:18:29.517Z,19.30
2024-05-09T09:20:56.630Z,19.30
2024-05-09T09:23:23.732Z,19.40
2024-05-09T09:25:50.907Z,19.40
2024-05-09T09:28:18.061Z,19.40
2024-05-09T09:30:46.280Z,19.40
2024-05-09T09:33:13.802Z,19.40
2024-05-09T09:35:41.118Z,19.40
2024-05-09T09:38:10.477Z,19.40
2024-05-09T09:40:44.797Z,19.30
2024-05-09T09:43:22.860Z,19.40
2024-05-09T09:45:51.431Z,19.40
2024-05-09T09:48:21.472Z,19.40
2024-05-09T09:50:51.342Z,19.30
2024-05-09T09:53:19.361Z,19.30
2024-05-09T09:55:46.970Z,19.30
2024-05-09T09:58:18.260Z,19.40
2024-05-09T10:00:45.635Z,19.40
2024-05-09T10:03:13.057Z,19.40
2024-05-09T10:05:43.093Z,19.40
2024-05-09T10:08:13.037Z,19.40
2024-05-09T10:10:45.595Z,19.40
2024-05-09T10:13:12.740Z,19.40
2024-05-09T10:15:57.774Z,19.50
2024-05-09T10:18:28.402Z,19.50
2024-05-09T10:20:57.784Z,19.60
2024-05-09T10:23:30.142Z,19.60
2024-05-09T10:26:02.988Z,19.50
2024-05-09T10:28:35.588Z,19.50
2024-05-09T10:31:09.914Z,19.50
2024-05-09T10:33:52.017Z,19.50
2024-05-09T10:36:25.061Z,19.40
2024-05-09T10:38:53.761Z,19.50
2024-05-09T10:41:21.840Z,19.50
2024-05-09T10:43:49.497Z,19.60
2024-05-09T10:46:18.906Z,19.60
2024-05-09T10:48:47.807Z,19.60
2024-05-09T10:51:19.271Z,19.60
2024-05-09T10:53:48.385Z,19.60
2024-05-09T10:56:16.263Z,19.60
2024-05-09T10:58:43.335Z,19.60
2024-05-09T11:01:11.037Z,19.60
2024-05-09T11:03:39.251Z,19.60
2024-05-09T11:06:06.946Z,19.60
2024-05-09T11:08:35.135Z,19.50
2024-05-09T11:11:07.604Z,19.60
2024-05-09T11:13:37.934Z,19.50
2024-05-09T11:16:06.884Z,19.50
2024-05-09T11:18:38.104Z,19.50
2024-05-09T11:21:13.135Z,19.50
2024-05-09T11:23:40.672Z,19.60
2024-05-09T11:26:07.824Z,19.60
2024-05-09T11:28:34.779Z,19.60
2024-05-09T11:31:09.870Z,19.60
2024-05-09T11:33:41.404Z,19.60
2024-05-09T11:36:09.651Z,19.70
2024-05-09T11:38:36.560Z,19.70
2024-05-09T11:41:04.740Z,19.80
2024-05-09T11:43:31.819Z,19.80
2024-05-09T11:46:00.378Z,19.90
2024-05-09T11:48:27.887Z,19.80
2024-05-09T11:50:55.665Z,19.80
2024-05-09T11:53:22.972Z,19.90
2024-05-09T11:55:50.335Z,19.90
2024-05-09T11:58:18.472Z,19.80
2024-05-09T12:00:46.552Z,19.80
2024-05-09T12:03:13.940Z,19.80
2024-05-09T12:05:41.281Z,19.80
2024-05-09T12:08:08.453Z,19.80
2024-05-09T12:10:36.802Z,19.80
2024-05-09T12:13:06.279Z,19.90
2024-05-09T12:15:37.544Z,20.00
2024-05-09T12:18:06.184Z,20.00
2024-05-09T12:20:37.671Z,20.00
2024-05-09T12:23:09.139Z,19.90
2024-05-09T12:25:37.812Z,19.90
2024-05-09T12:28:05.454Z,19.90
2024-05-09T12:30:37.568Z,19.90
2024-05-09T12:33:08.861Z,19.90
2024-05-09T12:35:36.505Z,19.80
2024-05-09T12:38:04.316Z,19.90
2024-05-09T12:40:37.109Z,19.80
2024-05-09T12:43:10.352Z,19.90
2024-05-09T12:45:38.718Z,19.90
2024-05-09T12:48:08.644Z,20.00
2024-05-09T12:50:36.550Z,20.00
2024-05-09T12:53:04.767Z,20.00
2024-05-09T12:55:41.018Z,20.00
2024-05-09T12:58:18.947Z,20.00
2024-05-09T13:00:46.598Z,20.00
2024-05-09T13:03:14.162Z,20.10
2024-05-09T13:05:41.850Z,20.10
2024-05-09T13:08:09.190Z,20.10
2024-05-09T13:10:36.900Z,20.10
2024-05-09T13:13:04.321Z,20.00
2024-05-09T13:15:31.693Z,20.10
2024-05-09T13:18:01.964Z,20.10
2024-05-09T13:20:33.793Z,20.10
2024-05-09T13:23:03.965Z,20.20
2024-05-09T13:25:31.511Z,20.20
2024-05-09T13:27:58.755Z,20.20
2024-05-09T13:30:33.741Z,20.20
2024-05-09T13:33:07.036Z,20.20
2024-05-09T13:35:35.582Z,20.20
2024-05-09T13:38:04.508Z,20.20
2024-05-09T13:40:34.833Z,20.20
2024-05-09T13:43:07.018Z,20.30
2024-05-09T13:45:35.116Z,20.30
2024-05-09T13:48:03.963Z,20.20
2024-05-09T13:50:35.170Z,20.20
2024-05-09T13:53:06.201Z,20.30
2024-05-09T13:55:35.108Z,20.40
2024-05-09T13:58:03.037Z,20.40
2024-05-09T14:00:42.182Z,20.40
2024-05-09T14:03:14.990Z,20.40
2024-05-09T14:05:43.019Z,20.40
2024-05-09T14:08:10.213Z,20.40
2024-05-09T14:10:44.023Z,20.40
2024-05-09T14:13:11.715Z,20.40
2024-05-09T14:15:39.105Z,20.40
2024-05-09T14:18:10.353Z,20.50
2024-05-09T14:20:39.777Z,20.40
2024-05-09T14:23:06.692Z,20.40
2024-05-09T14:25:38.675Z,20.50
2024-05-09T14:28:09.050Z,20.50
2024-05-09T14:30:38.033Z,20.50
2024-05-09T14:33:07.114Z,20.50
2024-05-09T14:35:35.137Z,20.50
2024-05-09T14:38:02.390Z,20.50
2024-05-09T14:40:39.384Z,20.50
2024-05-09T14:43:14.587Z,20.40
2024-05-09T14:45:43.303Z,20.50
2024-05-09T14:48:11.746Z,20.40
2024-05-09T14:50:40.431Z,20.40
2024-05-09T14:53:09.215Z,20.50
2024-05-09T14:55:37.581Z,20.50
2024-05-09T14:58:09.334Z,20.50
2024-05-09T15:00:45.993Z,20.50
2024-05-09T15:03:17.165Z,20.50
2024-05-09T15:05:45.039Z,20.60
2024-05-09T15:08:12.077Z,20.60
2024-05-09T15:10:39.293Z,20.60
2024-05-09T15:13:08.214Z,20.60
2024-05-09T15:15:37.276Z,20.50
2024-05-09T15:18:05.688Z,20.50
2024-05-09T15:20:36.178Z,20.50
2024-05-09T15:23:06.475Z,20.60
2024-05-09T15:25:34.601Z,20.60
2024-05-09T15:28:01.657Z,20.50
2024-05-09T15:30:32.062Z,20.50
2024-05-09T15:33:01.316Z,20.50
2024-05-09T15:35:29.297Z,20.50
2024-05-09T15:37:56.716Z,20.50
2024-05-09T15:40:34.876Z,20.60
2024-05-09T15:43:07.924Z,20.60
2024-05-09T15:45:35.975Z,20.60
2024-05-09T15:48:03.763Z,20.60
2024-05-09T15:50:37.660Z,20.60
2024-05-09T15:53:09.148Z,20.60
2024-05-09T15:55:37.061Z,20.60
2024-05-09T15:58:05.042Z,20.50
2024-05-09T16:00:38.428Z,20.50
2024-05-09T16:03:10.008Z,20.50
2024-05-09T16:05:38.357Z,20.40
2024-05-09T16:08:06.645Z,20.40
2024-05-09T16:10:35.025Z,20.40
2024-05-09T16:13:03.438Z,20.50
2024-05-09T16:15:31.590Z,20.50
2024-05-09T16:17:59.209Z,20.40
2024-05-09T16:20:34.919Z,20.40
2024-05-09T16:23:07.110Z,20.40
2024-05-09T16:25:34.096Z,20.40
2024-05-09T16:28:01.771Z,20.40
2024-05-09T16:30:34.720Z,20.40
2024-05-09T16:33:04.908Z,20.40
2024-05-09T16:35:34.879Z,20.40
2024-05-09T16:38:03.270Z,20.40
2024-05-09T16:40:37.582Z,20.40
2024-05-09T16:43:11.592Z,20.30
2024-05-09T16:45:40.684Z,20.30
2024-05-09T16:48:08.402Z,20.20
2024-05-09T16:50:36.495Z,20.30
2024-05-09T16:53:05.200Z,20.20
2024-05-09T16:55:33.372Z,20.20
2024-05-09T16:58:00.735Z,20.30
2024-05-09T17:00:38.237Z,20.20
2024-05-09T17:03:10.201Z,20.20
2024-05-09T17:05:38.478Z,20.20
2024-05-09T17:08:06.425Z,20.20
2024-05-09T17:10:36.823Z,20.20
2024-05-09T17:13:05.919Z,20.20
2024-05-09T17:15:34.359Z,20.20
2024-05-09T17:18:02.124Z,20.20
2024-05-09T17:20:34.142Z,20.10
2024-05-09T17:23:05.140Z,20.10
2024-05-09T17:25:32.978Z,20.10
2024-05-09T17:28:06.509Z,20.10
2024-05-09T17:30:39.638Z,20.10
2024-05-09T17:33:09.629Z,20.00
2024-05-09T17:35:37.906Z,20.00
2024-05-09T17:38:07.677Z,20.00
2024-05-09T17:40:37.255Z,20.00
2024-05-09T17:43:06.926Z,20.00
2024-05-09T17:45:37.646Z,19.90
2024-05-09T17:48:05.198Z,19.90
2024-05-09T17:50:35.929Z,19.90
2024-05-09T17:53:05.615Z,19.90
2024-05-09T17:55:33.083Z,19.90
2024-05-09T17:58:00.600Z,19.90
2024-05-09T18:00:36.900Z,19.90
2024-05-09T18:03:07.936Z,19.80
2024-05-09T18:05:36.728Z,19.80
2024-05-09T18:08:05.451Z,19.80
2024-05-09T18:10:37.015Z,19.80
2024-05-09T18:13:10.200Z,19.80
2024-05-09T18:15:38.322Z,19.70
2024-05-09T18:18:06.417Z,19.70
2024-05-09T18:20:41.712Z,19.70
2024-05-09T18:23:13.972Z,19.70
2024-05-09T18:25:41.563Z,19.60
2024-05-09T18:28:08.905Z,19.60
2024-05-09T18:30:37.281Z,19.60
2024-05-09T18:33:07.067Z,19.60
2024-05-09T18:35:35.734Z,19.50
2024-05-09T18:38:03.770Z,19.50
2024-05-09T18:40:34.819Z,19.50
2024-05-09T18:43:06.619Z,19.50
2024-05-09T18:45:35.743Z,19.40
2024-05-09T18:48:04.835Z,19.40
2024-05-09T18:50:36.320Z,19.40
2024-05-09T18:53:06.708Z,19.30
2024-05-09T18:55:33.880Z,19.30
2024-05-09T18:58:01.469Z,19.30
2024-05-09T19:00:34.703Z,19.30
2024-05-09T19:03:09.127Z,19.20
2024-05-09T19:05:38.438Z,19.20
2024-05-09T19:08:07.424Z,19.20
2024-05-09T19:10:36.071Z,19.10
2024-05-09T19:13:08.439Z,19.10
2024-05-09T19:15:39.443Z,19.00
2024-05-09T19:18:07.347Z,19.00
2024-05-09T19:20:36.399Z,19.00
2024-05-09T19:23:04.643Z,18.90
2024-05-09T19:25:32.569Z,18.80
2024-05-09T19:28:00.525Z,18.80
2024-05-09T19:30:36.846Z,18.80
2024-05-09T19:33:08.229Z,18.80
2024-05-09T19:35:35.521Z,18.70
2024-05-09T19:38:03.133Z,18.70
2024-05-09T19:40:32.477Z,18.70
2024-05-09T19:43:02.705Z,18.60
2024-05-09T19:45:30.602Z,18.50
2024-05-09T19:47:57.881Z,18.40
2024-05-09T19:50:36.009Z,18.30
2024-05-09T19:53:09.181Z,18.30
2024-05-09T19:55:36.173Z,18.30
2024-05-09T19:58:05.609Z,18.10
2024-05-09T20:00:40.251Z,18.10
2024-05-09T20:03:10.208Z,18.10
2024-05-09T20:05:38.511Z,18.00
2024-05-09T20:08:06.697Z,17.90
2024-05-09T20:10:35.614Z,17.90
2024-05-09T20:13:05.314Z,17.90
2024-05-09T20:15:35.198Z,17.90
2024-05-09T20:18:02.876Z,17.80
2024-05-09T20:20:37.404Z,17.80
2024-05-09T20:23:08.545Z,17.80
2024-05-09T20:25:35.741Z,17.80
2024-05-09T20:28:03.291Z,17.70
2024-05-09T20:30:32.978Z,17.70
2024-05-09T20:33:07.319Z,17.60
2024-05-09T20:35:35.781Z,17.50
2024-05-09T20:38:03.608Z,17.50
2024-05-09T20:40:35.486Z,17.50
2024-05-09T20:43:06.631Z,17.40
2024-05-09T20:45:34.402Z,17.40
2024-05-09T20:48:02.114Z,17.40
2024-05-09T20:50:37.068Z,17.30
2024-05-09T20:53:12.705Z,17.20
2024-05-09T20:55:40.820Z,17.20
2024-05-09T20:58:09.238Z,17.20
2024-05-09T21:00:40.518Z,17.10
2024-05-09T21:03:11.685Z,17.10
2024-05-09T21:05:39.494Z,17.10
2024-05-09T21:08:07.141Z,17.00
2024-05-09T21:10:35.845Z,16.90
2024-05-09T21:13:03.837Z,16.90
2024-05-09T21:15:31.889Z,16.80
2024-05-09T21:17:59.376Z,16.80
2024-05-09T21:22:57.288Z,16.70
2024-05-09T21:25:24.391Z,16.70
2024-05-09T21:27:51.925Z,16.60
2024-05-09T21:30:28.141Z,16.50
2024-05-09T21:33:05.149Z,16.50
2024-05-09T21:35:32.311Z,16.40
2024-05-09T21:37:59.490Z,16.40
2024-05-09T21:40:33.473Z,16.50
2024-05-09T21:43:02.771Z,16.50
2024-05-09T21:45:30.436Z,16.50
2024-05-09T21:47:57.592Z,16.50
2024-05-09T21:50:32.232Z,16.50
2024-05-09T21:53:06.289Z,16.30
2024-05-09T21:55:33.472Z,16.30
2024-05-09T21:58:00.717Z,16.30
2024-05-09T22:00:35.606Z,16.20
2024-05-09T22:03:06.415Z,16.20
2024-05-09T22:05:33.943Z,16.10
2024-05-09T22:08:01.454Z,16.10
2024-05-09T22:10:33.869Z,16.00
2024-05-09T22:13:03.446Z,15.90
2024-05-09T22:15:33.672Z,15.90
2024-05-09T22:18:01.146Z,15.90
2024-05-09T22:20:34.549Z,15.80
2024-05-09T22:23:05.403Z,15.80
2024-05-09T22:25:32.956Z,15.90
2024-05-09T22:28:01.472Z,15.80
2024-05-09T22:30:35.793Z,15.80
2024-05-09T22:33:07.275Z,15.80
2024-05-09T22:35:34.564Z,15.70
2024-05-09T22:38:03.267Z,15.60
2024-05-09T22:40:38.992Z,15.60
2024-05-09T22:43:16.412Z,15.60
2024-05-09T22:45:43.541Z,15.50
2024-05-09T22:48:10.669Z,15.40
2024-05-09T22:50:37.735Z,15.40
2024-05-09T22:53:05.658Z,15.40
2024-05-09T22:55:32.743Z,15.40
2024-05-09T22:58:00.062Z,15.40
2024-05-09T23:00:31.669Z,15.30
2024-05-09T23:03:00.971Z,15.30
2024-05-09T23:05:28.435Z,15.20
2024-05-09T23:07:55.549Z,15.20
2024-05-09T23:10:30.880Z,15.20
2024-05-09T23:13:02.601Z,15.10
2024-05-09T23:15:29.745Z,15.10
2024-05-09T23:17:57.653Z,15.10
2024-05-09T23:20:33.511Z,15.20
2024-05-09T23:23:05.781Z,15.20
2024-05-09T23:25:32.784Z,15.10
2024-05-09T23:27:59.769Z,15.10
2024-05-09T23:30:37.129Z,15.10
2024-05-09T23:33:07.259Z,15.10
2024-05-09T23:35:34.447Z,15.00
2024-05-09T23:38:01.473Z,15.00
2024-05-09T23:40:37.639Z,14.90
2024-05-09T23:43:08.514Z,15.00
2024-05-09T23:45:36.025Z,14.80
2024-05-09T23:48:03.572Z,14.80
2024-05-09T23:50:35.130Z,14.70
2024-05-09T23:53:05.826Z,14.70
2024-05-09T23:55:34.271Z,14.70
2024-05-09T23:58:01.341Z,14.60
